Portada
METAR-TAF:

METAR-TAF

Aeropuertos :

Rodez, Francia

Aeropuerto de Rodez-Aveyron

latitud: 44-24N, longitud: 002-29E, altitud: 581 m

Observación

El informe se hizo hace 37 minutos, a las 16:00 UTC
Viento 6 kt del norte-noroeste, variando entre noroeste y norte-noreste
Temperatura 17°C
Humedad 48%
Presión 1020 hPa
Visibilidad 10 km o más
sin nubes por debajo de 1500 m y sin presencia de cumulonimbus.

METAR: LFCR 201600Z AUTO 34006KT 320V020 CAVOK 17/06 Q1020 NOSIG

Hora: 18:37 (16:37 UTC)

Pronóstico

El informe se hizo hace 5 horas y 37 minutos, a las 11:00 UTC
Pronóstico válido del 20 a las 12 UTC al 21 a las 12 UTC
Viento 4 kt del norte-noroeste
Visibilidad 10 km o más
sin nubes por debajo de 1500 m y sin presencia de cumulonimbus.
Probabilidad 30% :
Temporalmente
del 20 a las 22 UTC al 21 a las 06 UTC
Visibilidad: 3000 m
neblina

TAF: LFCR 201100Z 2012/2112 34004KT CAVOK PROB30 TEMPO 2022/2106 3000 BR NSC

Observaciones y pronósticos meteorológicos de más de 4000 aeropuertos (mensajes METAR y TAF).

Los puntos amarillos y rojos representan las estaciones disponibles.

Ponga el ratón en el punto deseado para ver el nombre de la estación.

Haga clic para ver las observaciones y los pronósticos meteorológicos.

Para cambiar el mapa : haga clic en los botones verdes con una cruz de color negro para hacer un zoom, en el botón verde con un guión para alejar o en las flechas verdes para mapas adyacentes.


METAR-TAF: